Time;durP1;ratioP1;P1;durP2;ratioP2;P2;SDS_P1;SDS_P2;PMS_P1;PMS_P2;Temp;Humidity;BMP_temperature;BMP_pressure;BME280_temperature;BME280_humidity;BME280_pressure;Samples;Min_cycle;Max_cycle;Signal;HPM_P1;HPM_P2
2021/07/10 00:01:18;;;;;;;13.10;8.05;;;;;;;20.79;99.01;97548.59;4986257;28;20091;-79
2021/07/10 00:03:44;;;;;;;17.77;8.50;;;;;;;20.77;98.61;97553.31;4966375;28;20113;-79
2021/07/10 00:06:10;;;;;;;16.33;9.57;;;;;;;20.54;99.83;97543.97;4966537;28;20482;-79
2021/07/10 00:08:36;;;;;;;14.85;10.30;;;;;;;20.46;100.00;97544.75;4974667;28;20456;-79
2021/07/10 00:11:04;;;;;;;13.82;9.32;;;;;;;20.47;100.00;97559.19;4977077;28;20030;-79
2021/07/10 00:13:29;;;;;;;15.27;10.48;;;;;;;20.39;100.00;97550.97;4963478;28;20034;-79
2021/07/10 00:15:55;;;;;;;12.52;8.95;;;;;;;20.33;100.00;97551.59;4983473;28;20429;-79
2021/07/10 00:18:21;;;;;;;16.92;9.05;;;;;;;20.29;100.00;97547.47;4993625;28;20406;-79
2021/07/10 00:20:46;;;;;;;17.77;9.00;;;;;;;20.09;100.00;97543.19;4977575;28;20407;-79
2021/07/10 00:23:12;;;;;;;14.45;8.70;;;;;;;20.02;100.00;97546.50;4985856;28;20034;-79
2021/07/10 00:25:38;;;;;;;14.55;8.90;;;;;;;19.91;100.00;97532.28;4969730;28;20030;-79
2021/07/10 00:28:04;;;;;;;15.82;8.75;;;;;;;19.98;100.00;97547.81;4985295;28;20407;-79
2021/07/10 00:30:30;;;;;;;13.70;9.05;;;;;;;19.99;100.00;97543.25;5003227;28;20026;-80
2021/07/10 00:32:56;;;;;;;14.45;8.65;;;;;;;19.99;100.00;97538.66;4985705;28;20022;-79
2021/07/10 00:35:22;;;;;;;12.55;9.10;;;;;;;19.86;100.00;97527.31;4989515;28;20097;-79
2021/07/10 00:37:47;;;;;;;13.25;9.10;;;;;;;19.94;100.00;97540.13;4990383;28;20025;-79
2021/07/10 00:40:13;;;;;;;15.52;9.00;;;;;;;19.92;100.00;97537.56;4985246;28;20121;-79
2021/07/10 00:42:40;;;;;;;11.77;9.23;;;;;;;19.95;100.00;97548.13;4987268;28;20553;-79
2021/07/10 00:45:07;;;;;;;10.98;8.50;;;;;;;19.99;100.00;97546.78;4992521;28;20038;-80
2021/07/10 00:47:33;;;;;;;13.32;8.95;;;;;;;19.99;100.00;97549.50;4985831;28;20068;-79
2021/07/10 00:49:59;;;;;;;11.90;8.80;;;;;;;20.06;100.00;97548.91;5003134;28;20030;-79
2021/07/10 00:52:26;;;;;;;14.50;8.88;;;;;;;20.12;100.00;97540.97;4985838;28;20108;-79
2021/07/10 00:54:52;;;;;;;16.38;9.50;;;;;;;20.10;100.00;97544.88;4994013;28;20053;-80
2021/07/10 00:57:18;;;;;;;15.10;10.25;;;;;;;20.05;100.00;97544.50;4961383;28;20488;-79
2021/07/10 00:59:44;;;;;;;21.88;11.32;;;;;;;20.03;100.00;97534.63;4962304;28;20030;-79
2021/07/10 01:02:10;;;;;;;16.52;10.18;;;;;;;20.02;100.00;97532.06;4977567;28;20486;-79
2021/07/10 01:04:36;;;;;;;22.88;9.90;;;;;;;19.98;100.00;97531.53;4983174;28;20480;-80
2021/07/10 01:07:01;;;;;;;15.57;10.65;;;;;;;19.88;100.00;97528.00;4980284;28;20050;-79
2021/07/10 01:09:27;;;;;;;17.13;10.00;;;;;;;19.81;100.00;97524.19;4981901;28;20022;-80
2021/07/10 01:11:53;;;;;;;18.65;10.32;;;;;;;19.68;100.00;97522.88;4972789;28;20033;-79
2021/07/10 01:14:20;;;;;;;13.82;9.88;;;;;;;19.60;100.00;97515.47;4969339;28;20026;-80
2021/07/10 01:16:46;;;;;;;22.00;10.20;;;;;;;19.54;100.00;97505.22;4969402;28;20028;-79
2021/07/10 01:19:11;;;;;;;18.05;10.45;;;;;;;19.53;100.00;97498.09;4987250;28;20105;-79
2021/07/10 01:21:38;;;;;;;14.55;10.65;;;;;;;19.54;100.00;97499.78;4975197;28;20109;-79
2021/07/10 01:24:04;;;;;;;14.40;10.38;;;;;;;19.50;100.00;97487.56;4977558;28;20100;-79
2021/07/10 01:26:30;;;;;;;14.82;10.20;;;;;;;19.43;100.00;97476.47;4992376;28;20485;-79
2021/07/10 01:28:55;;;;;;;14.98;11.60;;;;;;;19.53;100.00;97473.69;4976815;28;20104;-79
2021/07/10 01:31:23;;;;;;;16.08;11.20;;;;;;;19.48;100.00;97475.97;4968538;28;20061;-79
2021/07/10 01:33:48;;;;;;;15.82;10.13;;;;;;;19.55;100.00;97478.94;4967450;28;20045;-80
2021/07/10 01:36:14;;;;;;;15.38;10.60;;;;;;;19.46;100.00;97468.00;4986521;28;20026;-79
2021/07/10 01:38:39;;;;;;;13.20;10.40;;;;;;;19.45;100.00;97462.72;4970648;28;20030;-79
2021/07/10 01:41:05;;;;;;;23.50;12.13;;;;;;;19.42;100.00;97452.16;4968526;28;20026;-79
2021/07/10 01:43:30;;;;;;;15.98;11.98;;;;;;;19.43;100.00;97457.47;4968701;28;20519;-79
2021/07/10 01:45:56;;;;;;;16.48;11.52;;;;;;;19.43;100.00;97452.03;5002697;28;20439;-79
2021/07/10 01:48:21;;;;;;;16.67;11.63;;;;;;;19.39;100.00;97436.16;4984713;28;20030;-79
2021/07/10 01:50:47;;;;;;;19.40;11.65;;;;;;;19.47;100.00;97449.88;4971072;28;20026;-79
2021/07/10 01:53:14;;;;;;;16.10;11.60;;;;;;;19.44;100.00;97455.59;4971621;28;20025;-79
2021/07/10 01:55:40;;;;;;;17.50;11.93;;;;;;;19.37;100.00;97447.19;4991562;28;20030;-79
2021/07/10 01:58:06;;;;;;;20.85;12.07;;;;;;;19.43;100.00;97448.47;4984772;28;20037;-79
2021/07/10 02:00:36;;;;;;;20.02;11.85;;;;;;;19.55;100.00;97463.53;4968283;28;20518;-79
2021/07/10 02:03:02;;;;;;;16.17;11.43;;;;;;;19.54;100.00;97461.81;4968408;28;20517;-79
2021/07/10 02:05:28;;;;;;;20.58;11.43;;;;;;;19.59;100.00;97470.38;4976187;28;20038;-79
2021/07/10 02:07:56;;;;;;;20.23;11.20;;;;;;;19.58;100.00;97474.06;4984462;28;20454;-79
2021/07/10 02:10:22;;;;;;;17.83;11.30;;;;;;;19.50;100.00;97479.41;5011734;28;20485;-79
2021/07/10 02:12:53;;;;;;;21.08;10.55;;;;;;;19.50;100.00;97471.28;4982041;28;20057;-79
2021/07/10 02:15:18;;;;;;;11.73;9.27;;;;;;;19.46;100.00;97464.44;4984263;28;20481;-78
2021/07/10 02:17:44;;;;;;;14.57;9.23;;;;;;;19.37;100.00;97473.47;4969529;28;20030;-79
2021/07/10 02:20:18;;;;;;;19.60;9.52;;;;;;;19.30;100.00;97470.50;4979632;28;20034;-79
2021/07/10 02:22:44;;;;;;;11.18;8.80;;;;;;;19.25;100.00;97480.09;4976571;28;20029;-79
2021/07/10 02:25:12;;;;;;;17.33;9.32;;;;;;;19.15;100.00;97477.41;4976118;28;20026;-80
2021/07/10 02:27:38;;;;;;;12.25;9.20;;;;;;;19.10;100.00;97484.31;4959706;28;20026;-79
2021/07/10 02:30:09;;;;;;;11.93;8.88;;;;;;;19.10;100.00;97489.72;4987899;28;20101;-80
2021/07/10 02:32:34;;;;;;;19.52;9.02;;;;;;;19.01;100.00;97479.78;4967921;28;20061;-80
2021/07/10 02:35:00;;;;;;;12.40;8.75;;;;;;;19.00;100.00;97483.47;4967879;28;20481;-80
2021/07/10 02:37:26;;;;;;;11.48;8.10;;;;;;;19.01;100.00;97479.78;4975979;28;20034;-79
2021/07/10 02:39:52;;;;;;;14.70;8.88;;;;;;;18.94;100.00;97483.09;4988772;28;20445;-80
2021/07/10 02:42:18;;;;;;;10.68;8.57;;;;;;;18.91;100.00;97483.38;4994706;28;20092;-79
2021/07/10 02:44:44;;;;;;;11.82;8.38;;;;;;;18.94;100.00;97483.09;4967668;28;20451;-79
2021/07/10 02:47:09;;;;;;;18.38;8.52;;;;;;;18.96;100.00;97477.50;4987522;28;20034;-80
2021/07/10 02:49:35;;;;;;;13.07;8.52;;;;;;;18.98;100.00;97472.75;4969855;28;20041;-80
2021/07/10 02:52:00;;;;;;;11.38;9.10;;;;;;;18.93;100.00;97485.91;4995274;28;20485;-78
2021/07/10 02:54:26;;;;;;;17.00;9.52;;;;;;;18.91;100.00;97486.09;4970524;28;20049;-79
2021/07/10 02:56:52;;;;;;;17.42;9.65;;;;;;;18.85;100.00;97483.97;4966009;28;20029;-82
2021/07/10 02:59:17;;;;;;;14.30;9.77;;;;;;;18.86;100.00;97491.06;5000569;28;20088;-82
2021/07/10 03:01:43;;;;;;;17.73;9.63;;;;;;;18.85;100.00;97492.09;4967114;28;20084;-81
2021/07/10 03:04:08;;;;;;;17.05;9.82;;;;;;;18.83;100.00;97496.78;4974998;28;20076;-81
2021/07/10 03:06:34;;;;;;;12.38;9.73;;;;;;;18.87;100.00;97491.94;4975318;28;20030;-81
2021/07/10 03:08:59;;;;;;;14.40;10.20;;;;;;;18.93;100.00;97504.91;4978470;28;20034;-81
2021/07/10 03:11:25;;;;;;;16.80;10.73;;;;;;;18.90;100.00;97507.91;4975453;28;20414;-80
2021/07/10 03:13:50;;;;;;;16.00;10.18;;;;;;;18.93;100.00;97502.19;5003998;28;20498;-80
2021/07/10 03:16:16;;;;;;;16.42;10.02;;;;;;;18.90;100.00;97508.75;4971172;28;20045;-80
2021/07/10 03:18:41;;;;;;;14.00;10.20;;;;;;;18.98;100.00;97513.44;4974716;28;20480;-80
2021/07/10 03:21:07;;;;;;;18.90;11.48;;;;;;;18.92;100.00;97506.75;5000430;28;20547;-80
2021/07/10 03:23:32;;;;;;;22.13;10.98;;;;;;;18.87;100.00;97506.34;4982466;28;20113;-80
2021/07/10 03:25:58;;;;;;;24.08;11.85;;;;;;;18.96;100.00;97504.59;4982994;28;20486;-81
2021/07/10 03:28:24;;;;;;;16.83;11.25;;;;;;;18.99;100.00;97500.75;5008030;28;20049;-81
2021/07/10 03:30:52;;;;;;;16.25;11.82;;;;;;;19.08;100.00;97498.00;5000700;28;20026;-80
2021/07/10 03:33:19;;;;;;;13.20;10.13;;;;;;;19.04;100.00;97499.28;5000455;28;20030;-78
2021/07/10 03:35:45;;;;;;;17.38;11.68;;;;;;;19.14;100.00;97499.25;4985031;28;20033;-79
2021/07/10 03:38:10;;;;;;;22.50;12.13;;;;;;;19.12;100.00;97498.56;4980441;28;20025;-78
2021/07/10 03:40:36;;;;;;;19.25;11.90;;;;;;;19.16;100.00;97505.41;4967228;28;20096;-78
2021/07/10 03:43:04;;;;;;;17.42;12.23;;;;;;;19.18;100.00;97503.38;4973405;28;20109;-79
2021/07/10 03:45:29;;;;;;;16.75;10.98;;;;;;;19.22;100.00;97504.81;4974462;28;20042;-79
2021/07/10 03:47:55;;;;;;;13.73;10.68;;;;;;;19.31;100.00;97498.47;4974669;28;20176;-79
2021/07/10 03:50:21;;;;;;;16.92;11.60;;;;;;;19.31;100.00;97491.19;4970998;28;20026;-79
2021/07/10 03:52:47;;;;;;;16.90;10.68;;;;;;;19.40;100.00;97503.03;4984672;28;20517;-79
2021/07/10 03:55:14;;;;;;;16.63;10.80;;;;;;;19.52;100.00;97507.25;4972153;28;20034;-79
2021/07/10 03:57:40;;;;;;;19.25;11.65;;;;;;;19.67;100.00;97505.72;4974164;28;20045;-79
2021/07/10 04:00:09;;;;;;;15.48;10.35;;;;;;;19.74;100.00;97506.84;5000028;28;20042;-79
2021/07/10 04:02:34;;;;;;;19.15;10.55;;;;;;;19.78;100.00;97502.78;4971366;28;20034;-79
2021/07/10 04:05:00;;;;;;;21.58;11.30;;;;;;;19.81;100.00;97486.19;4969529;28;20022;-79
2021/07/10 04:07:25;;;;;;;18.90;10.43;;;;;;;20.00;100.00;97507.78;5003534;28;20065;-79
2021/07/10 04:09:51;;;;;;;28.80;10.40;;;;;;;20.16;100.00;97496.22;4969519;28;20022;-80
2021/07/10 04:12:16;;;;;;;25.65;10.30;;;;;;;20.33;99.02;97499.97;4972104;28;20041;-78
2021/07/10 04:14:42;;;;;;;24.20;10.02;;;;;;;20.53;97.10;97504.22;4991942;28;20023;-79
2021/07/10 04:17:08;;;;;;;27.20;9.82;;;;;;;20.61;96.08;97493.38;4982799;28;20022;-80
2021/07/10 04:19:33;;;;;;;21.45;10.63;;;;;;;20.77;95.99;97493.50;4962374;28;20073;-78
2021/07/10 04:21:59;;;;;;;15.68;10.57;;;;;;;20.95;95.13;97488.88;4974207;28;20451;-79
2021/07/10 04:24:25;;;;;;;15.27;9.20;;;;;;;21.11;93.46;97490.84;4966281;28;20117;-78
2021/07/10 04:26:51;;;;;;;19.42;10.23;;;;;;;21.21;92.63;97494.31;4975990;28;20120;-78
2021/07/10 04:29:17;;;;;;;14.88;9.50;;;;;;;21.25;90.87;97500.31;4982660;28;20073;-78
2021/07/10 04:31:42;;;;;;;14.05;10.02;;;;;;;21.15;90.98;97500.41;4967813;28;20034;-79
2021/07/10 04:34:08;;;;;;;18.45;10.68;;;;;;;21.10;91.45;97507.38;4968994;28;20157;-79
2021/07/10 04:36:33;;;;;;;18.95;9.10;;;;;;;21.25;90.45;97500.31;4987122;28;20030;-80
2021/07/10 04:38:59;;;;;;;20.50;10.02;;;;;;;21.48;89.54;97501.41;4983119;28;20032;-79
2021/07/10 04:41:24;;;;;;;16.13;10.07;;;;;;;21.65;87.14;97503.19;4990956;28;20031;-78
2021/07/10 04:43:50;;;;;;;14.88;10.07;;;;;;;21.70;87.84;97502.69;4983386;28;20034;-78
2021/07/10 04:46:15;;;;;;;15.68;9.85;;;;;;;21.82;87.21;97510.38;4983977;28;20092;-78
2021/07/10 04:48:41;;;;;;;24.15;11.25;;;;;;;21.96;85.86;97509.78;5004722;28;20469;-78
2021/07/10 04:51:07;;;;;;;24.90;10.63;;;;;;;22.03;85.26;97508.09;4965600;28;20041;-77
2021/07/10 04:53:32;;;;;;;16.20;9.10;;;;;;;22.17;84.15;97508.47;4982591;28;20150;-77
2021/07/10 04:55:58;;;;;;;16.60;9.35;;;;;;;23.12;79.75;97519.53;4985360;28;20029;-79
2021/07/10 04:58:24;;;;;;;14.60;7.95;;;;;;;23.82;74.29;97515.06;4987336;28;20034;-79
2021/07/10 05:00:49;;;;;;;15.23;8.38;;;;;;;25.21;67.90;97524.81;4985994;28;20068;-78
2021/07/10 05:03:15;;;;;;;13.48;8.10;;;;;;;26.23;63.60;97541.28;4972649;28;20121;-79
2021/07/10 05:05:41;;;;;;;19.33;8.73;;;;;;;27.74;58.51;97539.06;4988093;28;20028;-79
2021/07/10 05:08:07;;;;;;;29.65;9.55;;;;;;;29.12;52.96;97551.38;5005664;28;20032;-79
2021/07/10 05:10:33;;;;;;;15.68;8.38;;;;;;;30.21;48.38;97552.50;4972691;28;20446;-80
2021/07/10 05:12:58;;;;;;;15.85;9.23;;;;;;;30.68;46.68;97553.16;4966514;28;20033;-79
2021/07/10 05:15:24;;;;;;;21.13;8.13;;;;;;;31.35;45.24;97558.84;4973467;28;20494;-79
2021/07/10 05:17:50;;;;;;;26.67;8.55;;;;;;;32.42;43.03;97566.72;4974869;28;20026;-79
2021/07/10 05:20:15;;;;;;;15.98;10.73;;;;;;;32.74;41.01;97567.38;4991811;28;20088;-79
2021/07/10 05:22:41;;;;;;;19.98;8.63;;;;;;;33.33;39.97;97571.22;4974863;28;20109;-80
2021/07/10 05:25:08;;;;;;;12.45;7.75;;;;;;;32.96;39.70;97573.25;4976734;28;20026;-79
2021/07/10 05:27:34;;;;;;;7.25;6.38;;;;;;;33.17;39.11;97572.75;4994122;28;20032;-80
2021/07/10 05:30:00;;;;;;;15.60;7.10;;;;;;;32.58;40.68;97576.34;4993307;28;20038;-79
2021/07/10 05:32:25;;;;;;;10.82;7.53;;;;;;;33.98;38.44;97572.84;4992023;28;20026;-79
2021/07/10 05:34:51;;;;;;;9.93;8.52;;;;;;;34.59;37.45;97576.97;4968941;28;20034;-80
2021/07/10 05:37:17;;;;;;;16.45;7.88;;;;;;;34.95;37.43;97581.38;4975065;28;20078;-80
2021/07/10 05:39:42;;;;;;;12.27;7.78;;;;;;;34.33;38.04;97583.97;4960935;28;20034;-80
2021/07/10 05:42:09;;;;;;;18.10;7.90;;;;;;;33.17;39.22;97583.84;4991401;28;20061;-79
2021/07/10 05:44:34;;;;;;;30.67;8.90;;;;;;;33.78;39.09;97580.69;4974565;28;20033;-80
2021/07/10 05:47:00;;;;;;;16.48;6.93;;;;;;;34.21;38.58;97577.53;4990340;28;20486;-79
2021/07/10 05:49:26;;;;;;;16.77;6.65;;;;;;;35.04;36.45;97568.75;4973438;28;20034;-80
2021/07/10 05:51:51;;;;;;;13.10;6.88;;;;;;;36.52;33.79;97576.47;4974258;28;20036;-80
2021/07/10 05:54:17;;;;;;;9.73;6.25;;;;;;;37.08;32.19;97573.28;4973863;28;20038;-78
2021/07/10 05:56:43;;;;;;;16.42;6.85;;;;;;;36.76;31.65;97573.16;4973409;28;20125;-80
2021/07/10 05:59:09;;;;;;;14.43;6.03;;;;;;;35.02;33.46;97571.75;4973708;28;20042;-80
2021/07/10 06:01:34;;;;;;;17.05;6.88;;;;;;;35.86;32.77;97573.56;4990885;28;20092;-80
2021/07/10 06:04:01;;;;;;;21.00;6.03;;;;;;;36.22;32.34;97571.31;4973618;28;20125;-80
2021/07/10 06:06:27;;;;;;;14.50;6.38;;;;;;;36.60;32.14;97574.09;4974139;28;20530;-79
2021/07/10 06:08:52;;;;;;;15.50;6.50;;;;;;;37.25;31.23;97570.38;4993351;28;20772;-80
2021/07/10 06:11:18;;;;;;;8.00;6.28;;;;;;;36.32;32.27;97574.25;4995205;28;20034;-79
2021/07/10 06:13:44;;;;;;;13.02;6.25;;;;;;;36.68;32.17;97576.41;4973564;28;20036;-80
2021/07/10 06:16:10;;;;;;;8.38;5.85;;;;;;;36.66;31.81;97577.78;4969331;28;20470;-80
2021/07/10 06:18:35;;;;;;;9.48;6.07;;;;;;;36.28;31.72;97570.28;4976173;28;20556;-80
2021/07/10 06:21:01;;;;;;;18.25;7.28;;;;;;;38.30;29.84;97586.34;4992750;28;20041;-80
2021/07/10 06:23:27;;;;;;;18.30;7.50;;;;;;;38.52;29.70;97580.63;4991647;28;20034;-80
2021/07/10 06:25:52;;;;;;;11.20;7.22;;;;;;;38.25;29.81;97580.72;4967170;28;20026;-80
2021/07/10 06:28:18;;;;;;;12.05;5.90;;;;;;;37.98;30.22;97573.28;4989438;28;20050;-77
2021/07/10 06:30:44;;;;;;;21.92;6.05;;;;;;;39.21;28.51;97579.19;4976684;28;20025;-80
2021/07/10 06:33:09;;;;;;;10.43;5.30;;;;;;;39.48;27.01;97574.22;4961558;28;20468;-79
2021/07/10 06:35:35;;;;;;;8.40;5.30;;;;;;;39.03;27.72;97571.31;4975073;28;20029;-80
2021/07/10 06:38:01;;;;;;;9.80;5.55;;;;;;;37.52;29.26;97571.22;4963154;28;20042;-79
2021/07/10 06:40:26;;;;;;;14.77;5.50;;;;;;;37.43;30.13;97570.00;4972766;28;20035;-78
2021/07/10 06:42:52;;;;;;;9.02;5.05;;;;;;;38.51;28.89;97576.97;4981270;28;20174;-79
2021/07/10 06:45:19;;;;;;;9.75;5.47;;;;;;;38.94;28.16;97573.81;4980645;28;20152;-79
2021/07/10 06:47:45;;;;;;;12.93;5.55;;;;;;;38.83;27.89;97566.50;4991960;28;20116;-79
2021/07/10 06:50:13;;;;;;;16.38;6.25;;;;;;;39.24;27.92;97566.63;4992452;28;20484;-80
2021/07/10 06:52:39;;;;;;;10.80;5.60;;;;;;;40.24;26.71;97570.59;4989969;28;20021;-79
2021/07/10 06:55:06;;;;;;;10.35;5.90;;;;;;;39.63;27.25;97576.19;4965199;28;20041;-79
2021/07/10 06:57:32;;;;;;;16.63;6.22;;;;;;;40.69;26.38;97572.41;4986575;28;20093;-79
2021/07/10 06:59:58;;;;;;;13.93;6.70;;;;;;;39.43;27.61;97565.81;4964096;28;20026;-79
2021/07/10 07:02:23;;;;;;;14.05;6.40;;;;;;;39.00;28.42;97569.94;4972870;28;20461;-79
2021/07/10 07:04:49;;;;;;;12.20;5.70;;;;;;;39.44;27.73;97567.47;4972268;28;20034;-79
2021/07/10 07:07:14;;;;;;;8.32;5.30;;;;;;;39.95;27.60;97571.16;4967795;28;20089;-81
2021/07/10 07:09:40;;;;;;;10.50;6.15;;;;;;;39.36;27.84;97570.00;4974092;28;20084;-78
2021/07/10 07:12:06;;;;;;;10.18;5.38;;;;;;;40.53;26.72;97574.44;5009576;28;20037;-79
2021/07/10 07:14:31;;;;;;;8.55;4.70;;;;;;;39.66;26.67;97564.44;5009494;28;20029;-79
2021/07/10 07:16:58;;;;;;;9.95;4.75;;;;;;;40.47;26.34;97572.75;4991504;28;20030;-79
2021/07/10 07:19:29;;;;;;;16.55;5.22;;;;;;;40.69;26.06;97573.25;4975821;28;20474;-80
2021/07/10 07:21:55;;;;;;;8.43;4.47;;;;;;;40.88;25.91;97577.09;4999040;28;20088;-80
2021/07/10 07:24:20;;;;;;;8.60;4.30;;;;;;;41.55;24.98;97575.59;4956254;28;20037;-80
2021/07/10 07:26:46;;;;;;;5.25;4.18;;;;;;;40.95;25.69;97574.84;4970782;28;20100;-80
2021/07/10 07:29:12;;;;;;;6.82;4.43;;;;;;;40.76;26.35;97573.81;4971944;28;20530;-80
2021/07/10 07:31:37;;;;;;;11.32;4.38;;;;;;;40.30;26.35;97580.66;4998653;28;20080;-81
2021/07/10 07:34:03;;;;;;;8.13;3.95;;;;;;;41.38;25.27;97575.19;4981009;28;20030;-79
2021/07/10 07:36:28;;;;;;;7.78;4.88;;;;;;;41.60;24.40;97569.94;5003985;28;20037;-79
2021/07/10 07:38:54;;;;;;;11.90;3.88;;;;;;;40.75;25.15;97566.50;4974352;28;20038;-79
2021/07/10 07:41:20;;;;;;;8.65;5.60;;;;;;;40.48;25.65;97571.63;4989384;28;20089;-79
2021/07/10 07:43:46;;;;;;;6.47;4.50;;;;;;;41.32;24.84;97573.47;4981232;28;20149;-79
2021/07/10 07:46:13;;;;;;;15.32;5.28;;;;;;;41.51;24.48;97563.25;5009098;28;20060;-79
2021/07/10 07:48:42;;;;;;;14.15;8.10;;;;;;;41.94;24.62;97567.97;4966310;28;20461;-79
2021/07/10 07:51:08;;;;;;;11.50;4.75;;;;;;;42.71;23.10;97554.78;4992066;28;20053;-79
2021/07/10 07:53:34;;;;;;;19.80;4.60;;;;;;;41.91;23.49;97551.69;4974907;28;20068;-80
2021/07/10 07:55:59;;;;;;;11.27;5.78;;;;;;;42.15;23.86;97546.94;5009007;28;20557;-79
2021/07/10 07:58:26;;;;;;;7.97;5.00;;;;;;;41.53;24.03;97550.59;4977297;28;20430;-79
2021/07/10 08:00:52;;;;;;;16.27;4.75;;;;;;;41.72;24.41;97558.34;4971963;28;20038;-79
2021/07/10 08:03:17;;;;;;;16.98;6.15;;;;;;;41.06;24.93;97548.41;4987766;28;20037;-80
2021/07/10 08:05:43;;;;;;;7.75;4.82;;;;;;;41.94;24.80;97555.88;4987941;28;20030;-78
2021/07/10 08:08:08;;;;;;;9.23;4.32;;;;;;;42.67;24.51;97553.75;4991399;28;20029;-80
2021/07/10 08:10:34;;;;;;;6.32;4.53;;;;;;;41.32;22.86;97548.19;4976001;28;20526;-79
2021/07/10 08:12:59;;;;;;;10.75;3.88;;;;;;;42.12;20.80;97527.84;4977935;28;20034;-79
2021/07/10 08:15:25;;;;;;;7.75;4.07;;;;;;;41.58;22.49;97532.88;4995128;28;20076;-79
2021/07/10 08:17:51;;;;;;;6.93;3.72;;;;;;;42.13;20.88;97528.69;4994725;28;20030;-79
2021/07/10 08:20:17;;;;;;;10.43;4.30;;;;;;;42.84;21.21;97536.31;4995280;28;20034;-80
2021/07/10 08:22:44;;;;;;;5.85;3.53;;;;;;;42.81;20.25;97531.31;4995180;28;20033;-79
2021/07/10 08:25:11;;;;;;;7.30;4.28;;;;;;;42.38;21.04;97531.25;4994981;28;20022;-79
2021/07/10 08:27:37;;;;;;;12.10;3.80;;;;;;;42.92;20.52;97535.63;4994650;28;20033;-79
2021/07/10 08:30:04;;;;;;;8.20;3.45;;;;;;;42.45;19.91;97520.50;4976460;28;20041;-79
2021/07/10 08:32:30;;;;;;;20.38;3.70;;;;;;;42.32;20.38;97523.19;4971343;28;20034;-79
2021/07/10 08:34:56;;;;;;;6.68;3.58;;;;;;;42.99;20.51;97525.72;4981240;28;20486;-80
2021/07/10 08:37:21;;;;;;;19.52;3.92;;;;;;;43.29;20.85;97526.41;4968641;28;20034;-80
2021/07/10 08:39:47;;;;;;;8.85;3.85;;;;;;;43.73;20.16;97524.00;4995308;28;20034;-80
2021/07/10 08:42:13;;;;;;;7.82;3.85;;;;;;;43.69;20.43;97537.03;4989485;28;20508;-80
2021/07/10 08:44:40;;;;;;;7.85;3.38;;;;;;;43.61;19.82;97523.63;4970008;28;20023;-80
2021/07/10 08:47:13;;;;;;;8.95;3.33;;;;;;;43.81;18.59;97514.03;4981002;28;20022;-80
2021/07/10 08:49:39;;;;;;;23.58;5.25;;;;;;;44.06;19.44;97522.84;4998053;28;20018;-79
2021/07/10 08:52:06;;;;;;;18.77;3.63;;;;;;;42.97;20.67;97525.19;4996944;28;20116;-79
2021/07/10 08:54:32;;;;;;;13.77;3.80;;;;;;;40.47;22.56;97522.25;4997319;28;20025;-80
2021/07/10 08:56:57;;;;;;;9.90;4.00;;;;;;;39.01;24.41;97511.97;4997118;28;20096;-80
2021/07/10 08:59:23;;;;;;;9.55;3.97;;;;;;;37.68;25.00;97522.75;4997150;28;20053;-80
2021/07/10 09:01:53;;;;;;;10.13;3.72;;;;;;;38.65;24.05;97522.19;4997182;28;20072;-81
2021/07/10 09:04:20;;;;;;;28.35;5.00;;;;;;;40.32;22.59;97519.50;4985901;28;20031;-80
2021/07/10 09:06:45;;;;;;;13.20;3.30;;;;;;;41.02;19.56;97505.16;4973572;28;20026;-80
2021/07/10 09:09:11;;;;;;;6.90;3.08;;;;;;;41.46;18.77;97509.94;4977335;28;20042;-80
2021/07/10 09:11:37;;;;;;;7.95;3.13;;;;;;;42.20;19.09;97503.06;4977577;28;20466;-80
2021/07/10 09:14:02;;;;;;;4.50;3.15;;;;;;;41.56;20.18;97521.91;4975241;28;20049;-80
2021/07/10 09:16:32;;;;;;;9.10;4.93;;;;;;;39.60;22.02;97517.91;4977338;28;20034;-80
2021/07/10 09:19:03;;;;;;;11.32;4.82;;;;;;;38.96;24.14;97520.34;4960864;28;20034;-80
2021/07/10 09:21:40;;;;;;;14.57;5.95;;;;;;;39.65;23.10;97511.47;4994482;28;20088;-80
2021/07/10 09:24:13;;;;;;;7.00;4.85;;;;;;;40.10;23.56;97505.00;5012048;28;20030;-80
2021/07/10 09:26:47;;;;;;;15.38;4.82;;;;;;;40.41;22.68;97517.78;4996840;28;20018;-80
2021/07/10 09:29:19;;;;;;;10.05;4.45;;;;;;;41.31;21.77;97521.25;4961430;28;20084;-79
2021/07/10 09:31:48;;;;;;;8.38;4.15;;;;;;;42.22;21.06;97507.25;4977210;28;20053;-80
2021/07/10 09:34:19;;;;;;;5.90;3.60;;;;;;;42.40;20.00;97497.19;5013014;28;20034;-80
2021/07/10 09:37:03;;;;;;;9.70;3.92;;;;;;;42.35;21.04;97494.44;4996586;28;20022;-79
2021/07/10 09:39:31;;;;;;;6.32;3.53;;;;;;;42.27;19.71;97497.94;4992135;28;20069;-79
2021/07/10 09:41:58;;;;;;;11.90;3.28;;;;;;;42.24;19.60;97484.47;4994348;28;20030;-80
2021/07/10 09:44:24;;;;;;;6.70;3.30;;;;;;;41.94;21.50;97503.31;4980794;28;20018;-80
2021/07/10 09:46:50;;;;;;;8.23;3.58;;;;;;;41.11;21.28;97495.00;4996504;28;20075;-80
2021/07/10 09:49:20;;;;;;;13.30;3.78;;;;;;;40.14;21.68;97480.88;4977894;28;20038;-80
2021/07/10 09:51:46;;;;;;;12.80;3.25;;;;;;;40.35;21.08;97488.06;5008965;28;20030;-80
2021/07/10 09:54:12;;;;;;;5.53;4.80;;;;;;;42.16;19.40;97480.28;4997336;28;20638;-81
2021/07/10 09:56:39;;;;;;;5.85;4.03;;;;;;;42.10;20.32;97482.31;4996215;28;20390;-81
2021/07/10 09:59:18;;;;;;;3.75;3.28;;;;;;;41.47;20.51;97489.94;4996972;28;20041;-80
2021/07/10 10:01:44;;;;;;;6.43;4.05;;;;;;;40.56;22.33;97489.69;4995998;28;20583;-80
2021/07/10 10:04:27;;;;;;;12.48;4.60;;;;;;;40.55;22.75;97493.63;4994674;28;20108;-80
2021/07/10 10:06:54;;;;;;;16.13;4.70;;;;;;;40.54;21.74;97489.16;4976592;28;20036;-80
2021/07/10 10:09:22;;;;;;;9.32;4.22;;;;;;;39.73;22.65;97483.75;4976220;28;20034;-80
2021/07/10 10:12:01;;;;;;;6.85;4.93;;;;;;;38.27;24.13;97481.47;4971367;28;20030;-80
2021/07/10 10:14:29;;;;;;;6.75;4.05;;;;;;;36.85;25.37;97490.72;4976203;28;20478;-80
2021/07/10 10:16:56;;;;;;;9.63;3.90;;;;;;;36.59;26.17;97491.53;4976213;28;20042;-80
2021/07/10 10:19:25;;;;;;;11.68;4.85;;;;;;;37.11;26.10;97508.56;4976000;28;20062;-80
2021/07/10 10:21:53;;;;;;;5.13;4.60;;;;;;;39.08;23.28;97494.91;4990942;28;20601;-80
2021/07/10 10:24:20;;;;;;;4.53;3.70;;;;;;;40.15;21.40;97479.75;4995370;28;20034;-80
2021/07/10 10:26:47;;;;;;;6.50;3.60;;;;;;;40.55;21.75;97485.19;4995650;28;20026;-81
2021/07/10 10:29:13;;;;;;;10.15;3.15;;;;;;;39.88;22.13;97485.66;4995129;28;20050;-79
2021/07/10 10:31:41;;;;;;;6.10;3.42;;;;;;;40.02;22.77;97475.56;5012822;28;20051;-80
2021/07/10 10:34:07;;;;;;;29.15;5.05;;;;;;;39.74;22.85;97482.63;4986284;28;20410;-80
2021/07/10 10:36:38;;;;;;;9.95;3.30;;;;;;;39.14;23.32;97472.22;4968204;28;20034;-80
2021/07/10 10:39:28;;;;;;;22.13;3.45;;;;;;;40.87;22.50;97490.34;4975746;28;20038;-80
2021/07/10 10:42:00;;;;;;;11.70;3.83;;;;;;;40.42;22.71;97477.41;4975965;28;20605;-80
2021/07/10 10:44:42;;;;;;;9.70;3.55;;;;;;;39.02;23.54;97485.66;4975813;28;20066;-80
2021/07/10 10:47:10;;;;;;;5.85;3.15;;;;;;;38.03;24.54;97485.81;4975671;28;20026;-79
2021/07/10 10:49:41;;;;;;;5.68;3.05;;;;;;;37.99;25.48;97481.91;4967517;28;20026;-80
2021/07/10 10:52:35;;;;;;;6.30;3.20;;;;;;;40.23;22.89;97482.81;5000982;28;20037;-79
2021/07/10 10:55:02;;;;;;;5.32;2.85;;;;;;;41.71;21.11;97478.78;4994896;28;20501;-79
2021/07/10 10:57:37;;;;;;;8.52;3.00;;;;;;;42.76;20.11;97467.47;4962503;28;20030;-81
2021/07/10 11:00:36;;;;;;;15.82;3.10;;;;;;;43.03;19.47;97469.63;4994736;28;20105;-80
2021/07/10 11:03:02;;;;;;;5.18;2.97;;;;;;;42.81;19.48;97467.38;4990954;28;20045;-80
2021/07/10 11:05:33;;;;;;;5.28;3.15;;;;;;;42.14;20.08;97476.94;4984045;28;20034;-80
2021/07/10 11:08:18;;;;;;;8.00;3.35;;;;;;;40.31;21.63;97468.19;4999546;28;20022;-79
2021/07/10 11:11:03;;;;;;;12.18;3.42;;;;;;;38.93;23.75;97450.94;4994749;28;20153;-79
2021/07/10 11:13:33;;;;;;;18.27;4.15;;;;;;;38.08;24.46;97468.25;4984002;28;20037;-79
2021/07/10 11:16:09;;;;;;;35.08;4.45;;;;;;;39.44;23.61;97472.25;5012276;28;20033;-79
2021/07/10 11:19:00;;;;;;;7.68;3.67;;;;;;;41.11;21.67;97475.34;4994352;28;20021;-81
2021/07/10 11:21:41;;;;;;;4.55;2.85;;;;;;;41.86;21.22;97469.38;4974760;28;20109;-81